createdAt,value
2018-07-24T00:00:27.607Z,981
2018-07-24T00:01:28.766Z,981
2018-07-24T00:02:30.023Z,981
2018-07-24T00:03:31.200Z,981
2018-07-24T00:04:32.366Z,981
2018-07-24T00:05:33.578Z,981
2018-07-24T00:06:34.764Z,981
2018-07-24T00:07:35.999Z,981
2018-07-24T00:08:37.170Z,980.9
2018-07-24T00:09:38.355Z,980.9
2018-07-24T00:10:39.547Z,980.9
2018-07-24T00:11:40.723Z,980.9
2018-07-24T00:12:41.886Z,981
2018-07-24T00:13:43.055Z,981
2018-07-24T00:14:44.226Z,981
2018-07-24T00:15:45.481Z,980.9
2018-07-24T00:16:46.664Z,980.9
2018-07-24T00:17:47.842Z,980.9
2018-07-24T00:18:49.011Z,980.9
2018-07-24T00:19:50.186Z,980.9
2018-07-24T00:20:51.390Z,980.9
2018-07-24T00:21:52.554Z,980.9
2018-07-24T00:22:53.730Z,980.9
2018-07-24T00:23:54.937Z,980.9
2018-07-24T00:24:56.159Z,980.9
2018-07-24T00:25:57.427Z,981
2018-07-24T00:26:58.615Z,980.9
2018-07-24T00:27:59.824Z,980.9
2018-07-24T00:29:01.106Z,980.9
2018-07-24T00:30:02.356Z,981
2018-07-24T00:31:03.613Z,981
2018-07-24T00:32:04.812Z,980.9
2018-07-24T00:33:05.975Z,980.9
2018-07-24T00:34:07.154Z,981
2018-07-24T00:35:08.364Z,981
2018-07-24T00:36:09.599Z,981
2018-07-24T00:37:10.790Z,980.9
2018-07-24T00:38:11.964Z,981
2018-07-24T00:39:13.142Z,981
2018-07-24T00:40:14.320Z,981
2018-07-24T00:41:15.547Z,981
2018-07-24T00:42:16.717Z,980.8
2018-07-24T00:43:17.866Z,980.9
2018-07-24T00:44:19.052Z,980.9
2018-07-24T00:45:20.222Z,980.9
2018-07-24T00:46:21.441Z,980.9
2018-07-24T00:47:22.639Z,980.9
2018-07-24T00:48:23.830Z,980.9
2018-07-24T00:49:25.038Z,980.9
2018-07-24T00:50:26.205Z,980.9
2018-07-24T00:51:27.413Z,980.9
2018-07-24T00:52:28.579Z,980.9
2018-07-24T00:53:29.755Z,980.9
2018-07-24T00:54:30.927Z,980.8
2018-07-24T00:55:32.074Z,980.8
2018-07-24T00:56:33.276Z,980.8
2018-07-24T00:57:34.468Z,980.8
2018-07-24T00:58:35.647Z,980.8
2018-07-24T00:59:36.824Z,980.8
2018-07-24T01:00:38.002Z,980.8
2018-07-24T01:01:41.648Z,980.8
2018-07-24T01:02:42.863Z,980.8
2018-07-24T01:03:44.047Z,980.8
2018-07-24T01:04:45.223Z,980.7
2018-07-24T01:05:46.386Z,980.7
2018-07-24T01:06:47.651Z,980.7
2018-07-24T01:07:48.834Z,980.7
2018-07-24T01:08:50.025Z,980.7
2018-07-24T01:09:51.199Z,980.7
2018-07-24T01:10:53.377Z,980.7
2018-07-24T01:11:54.594Z,980.7
2018-07-24T01:12:55.762Z,980.7
2018-07-24T01:13:56.930Z,980.7
2018-07-24T01:14:58.122Z,980.7
2018-07-24T01:15:59.302Z,980.7
2018-07-24T01:17:00.530Z,980.7
2018-07-24T01:18:01.758Z,980.7
2018-07-24T01:19:02.933Z,980.7
2018-07-24T01:20:04.149Z,980.7
2018-07-24T01:21:05.324Z,980.7
2018-07-24T01:22:06.638Z,980.7
2018-07-24T01:23:09.129Z,980.7
2018-07-24T01:24:10.315Z,980.7
2018-07-24T01:25:11.491Z,980.7
2018-07-24T01:26:12.678Z,980.6
2018-07-24T01:27:13.933Z,980.7
2018-07-24T01:28:15.088Z,980.7
2018-07-24T01:29:16.263Z,980.7
2018-07-24T01:30:17.518Z,980.7
2018-07-24T01:31:19.448Z,980.6
2018-07-24T01:32:20.747Z,980.7
2018-07-24T01:33:22.925Z,980.7
2018-07-24T01:34:24.052Z,980.7
2018-07-24T01:35:25.223Z,980.7
2018-07-24T01:36:26.399Z,980.7
2018-07-24T01:37:27.627Z,980.7
2018-07-24T01:38:28.832Z,980.7
2018-07-24T01:39:30.287Z,980.5
2018-07-24T01:40:31.700Z,980.7
2018-07-24T01:41:32.880Z,980.7
2018-07-24T01:42:37.241Z,980.6
2018-07-24T01:43:38.527Z,980.7
2018-07-24T01:44:39.704Z,980.7
2018-07-24T01:45:40.874Z,980.7
2018-07-24T01:46:42.075Z,980.7
2018-07-24T01:47:43.501Z,980.7
2018-07-24T01:48:44.675Z,980.8
2018-07-24T01:49:45.871Z,980.7
2018-07-24T01:50:47.063Z,980.7
2018-07-24T01:51:48.250Z,980.7
2018-07-24T01:52:49.515Z,980.7
2018-07-24T01:53:50.677Z,980.7
2018-07-24T01:54:51.857Z,980.7
2018-07-24T01:55:53.021Z,980.7
2018-07-24T01:56:54.203Z,980.7
2018-07-24T01:57:55.420Z,980.8
2018-07-24T01:58:56.627Z,980.8
2018-07-24T01:59:57.868Z,980.7
2018-07-24T02:00:59.048Z,980.7
2018-07-24T02:02:00.212Z,980.7
2018-07-24T02:03:01.667Z,980.7
2018-07-24T02:04:02.889Z,980.8
2018-07-24T02:05:04.056Z,980.7
2018-07-24T02:06:05.274Z,980.6
2018-07-24T02:07:06.479Z,980.8
2018-07-24T02:08:07.715Z,980.7
2018-07-24T02:09:08.889Z,980.7
2018-07-24T02:10:10.073Z,980.8
2018-07-24T02:11:11.254Z,980.7
2018-07-24T02:12:12.455Z,980.7
2018-07-24T02:13:13.690Z,980.7
2018-07-24T02:14:14.915Z,980.7
2018-07-24T02:15:16.108Z,980.7
2018-07-24T02:16:17.269Z,980.7
2018-07-24T02:17:18.483Z,980.7
2018-07-24T02:18:19.724Z,980.7
2018-07-24T02:19:20.973Z,980.7
2018-07-24T02:20:22.196Z,980.6
2018-07-24T02:21:23.374Z,980.6
2018-07-24T02:22:25.496Z,980.6
2018-07-24T02:23:27.184Z,980.6
2018-07-24T02:24:28.406Z,980.6
2018-07-24T02:25:29.608Z,980.6
2018-07-24T02:26:30.811Z,980.6
2018-07-24T02:27:32.000Z,980.6
2018-07-24T02:28:33.211Z,980.6
2018-07-24T02:29:34.436Z,980.6
2018-07-24T02:30:35.621Z,980.6
2018-07-24T02:31:36.805Z,980.6
2018-07-24T02:32:37.997Z,980.6
2018-07-24T02:33:40.656Z,980.6
2018-07-24T02:34:41.892Z,980.6
2018-07-24T02:35:43.069Z,980.5
2018-07-24T02:36:44.302Z,980.6
2018-07-24T02:37:45.484Z,980.5
2018-07-24T02:38:46.744Z,980.5
2018-07-24T02:39:47.961Z,980.5
2018-07-24T02:40:49.183Z,980.5
2018-07-24T02:41:50.590Z,980.5
2018-07-24T02:42:51.804Z,980.5
2018-07-24T02:43:53.075Z,980.5
2018-07-24T02:44:54.276Z,980.5
2018-07-24T02:45:55.461Z,980.5
2018-07-24T02:46:58.239Z,980.4
2018-07-24T02:47:59.415Z,980.5
2018-07-24T02:49:00.762Z,980.5
2018-07-24T02:50:01.992Z,980.5
2018-07-24T02:51:03.197Z,980.5
2018-07-24T02:52:04.399Z,980.5
2018-07-24T02:53:05.609Z,980.5
2018-07-24T02:54:09.281Z,980.5
2018-07-24T02:55:10.448Z,980.5
2018-07-24T02:56:11.680Z,980.5
2018-07-24T02:57:12.884Z,980.5
2018-07-24T02:58:14.118Z,980.5
2018-07-24T02:59:15.342Z,980.5
2018-07-24T03:00:16.527Z,980.5
2018-07-24T03:01:17.719Z,980.5
2018-07-24T03:02:18.935Z,980.3
2018-07-24T03:03:20.112Z,980.5
2018-07-24T03:04:21.344Z,980.5
2018-07-24T03:05:22.546Z,980.5
2018-07-24T03:06:24.308Z,980.5
2018-07-24T03:07:25.574Z,980.5
2018-07-24T03:08:26.769Z,980.5
2018-07-24T03:09:28.031Z,980.5
2018-07-24T03:10:29.624Z,980.4
2018-07-24T03:11:30.864Z,980.4
2018-07-24T03:12:34.420Z,980.5
2018-07-24T03:13:35.633Z,980.5
2018-07-24T03:14:36.869Z,980.5
2018-07-24T03:15:42.466Z,980.5
2018-07-24T03:16:43.652Z,980.5
2018-07-24T03:17:44.854Z,980.5
2018-07-24T03:18:46.349Z,980.4
2018-07-24T03:19:48.027Z,980.5
2018-07-24T03:20:49.336Z,980.5
2018-07-24T03:21:50.548Z,980.5
2018-07-24T03:22:51.747Z,980.5
2018-07-24T03:23:52.942Z,980.5
2018-07-24T03:24:54.175Z,980.5
2018-07-24T03:25:55.391Z,980.5
2018-07-24T03:26:56.624Z,980.4
2018-07-24T03:27:57.824Z,980.5
2018-07-24T03:28:59.033Z,980.5
2018-07-24T03:30:00.295Z,980.6
2018-07-24T03:31:01.496Z,980.5
2018-07-24T03:32:02.717Z,980.5
2018-07-24T03:33:04.232Z,980.5
2018-07-24T03:34:05.415Z,980.6
2018-07-24T03:35:06.711Z,980.5
2018-07-24T03:36:08.281Z,980.5
2018-07-24T03:37:10.536Z,980.5
2018-07-24T03:38:11.744Z,980.5
2018-07-24T03:39:13.232Z,980.6
2018-07-24T03:40:14.456Z,980.5
2018-07-24T03:41:16.233Z,980.5
2018-07-24T03:42:18.633Z,980.5
2018-07-24T03:43:19.816Z,980.5
2018-07-24T03:44:23.372Z,980.5
2018-07-24T03:45:24.591Z,980.5
2018-07-24T03:46:25.812Z,980.5
2018-07-24T03:47:27.036Z,980.5
2018-07-24T03:48:28.271Z,980.5
2018-07-24T03:49:29.544Z,980.6
2018-07-24T03:50:30.868Z,980.5
2018-07-24T03:51:32.359Z,980.5
2018-07-24T03:52:34.315Z,980.4
2018-07-24T03:53:35.538Z,980.5
2018-07-24T03:54:36.741Z,980.6
2018-07-24T03:55:37.955Z,980.6
2018-07-24T03:56:41.408Z,980.5
2018-07-24T03:57:42.624Z,980.5
2018-07-24T03:58:43.856Z,980.5
2018-07-24T03:59:45.064Z,980.6
2018-07-24T04:00:46.305Z,980.6
2018-07-24T04:01:47.586Z,980.6
2018-07-24T04:02:48.792Z,980.6
2018-07-24T04:03:49.974Z,980.6
2018-07-24T04:04:51.182Z,980.6
2018-07-24T04:05:52.431Z,980.6
2018-07-24T04:06:53.629Z,980.5
2018-07-24T04:07:54.827Z,980.5
2018-07-24T04:08:56.020Z,980.5
2018-07-24T04:09:57.204Z,980.6
2018-07-24T04:10:58.462Z,980.6
2018-07-24T04:11:59.703Z,980.6
2018-07-24T04:13:00.896Z,980.6
2018-07-24T04:14:02.087Z,980.6
2018-07-24T04:15:03.290Z,980.6
2018-07-24T04:16:04.743Z,980.6
2018-07-24T04:17:06.780Z,980.6
2018-07-24T04:18:08.366Z,980.6
2018-07-24T04:19:09.561Z,980.7
2018-07-24T04:20:10.734Z,980.7
2018-07-24T04:21:11.983Z,980.7
2018-07-24T04:22:13.169Z,980.7
2018-07-24T04:23:14.367Z,980.7
2018-07-24T04:24:15.587Z,980.7
2018-07-24T04:25:16.785Z,980.7
2018-07-24T04:26:18.053Z,980.7
2018-07-24T04:27:19.243Z,980.7
2018-07-24T04:28:20.497Z,980.7
2018-07-24T04:29:21.717Z,980.7
2018-07-24T04:30:22.887Z,980.7
2018-07-24T04:31:24.140Z,980.7
2018-07-24T04:32:25.326Z,980.6
2018-07-24T04:33:26.528Z,980.7
2018-07-24T04:34:27.774Z,980.6
2018-07-24T04:35:28.988Z,980.7
2018-07-24T04:36:30.316Z,980.7
2018-07-24T04:37:31.497Z,980.7
2018-07-24T04:38:37.578Z,980.7
2018-07-24T04:39:38.799Z,980.7
2018-07-24T04:40:41.006Z,980.7
2018-07-24T04:41:42.231Z,980.7
2018-07-24T04:42:46.450Z,980.7
2018-07-24T04:43:47.679Z,980.7
2018-07-24T04:44:48.873Z,980.7
2018-07-24T04:45:50.167Z,980.7
2018-07-24T04:46:51.391Z,980.8
2018-07-24T04:47:52.578Z,980.8
2018-07-24T04:48:53.855Z,980.6
2018-07-24T04:49:55.100Z,980.8
2018-07-24T04:50:56.303Z,980.8
2018-07-24T04:51:59.060Z,980.8
2018-07-24T04:53:00.309Z,980.8
2018-07-24T04:54:01.496Z,980.7
2018-07-24T04:55:02.671Z,980.8
2018-07-24T04:56:03.888Z,980.9
2018-07-24T04:57:05.113Z,980.9
2018-07-24T04:58:06.352Z,980.9
2018-07-24T04:59:07.533Z,981
2018-07-24T05:00:08.729Z,981.1
2018-07-24T05:01:10.177Z,981.1
2018-07-24T05:02:11.524Z,981.2
2018-07-24T05:03:12.748Z,981.3
2018-07-24T05:04:13.907Z,981.2
2018-07-24T05:05:15.131Z,981.3
2018-07-24T05:06:16.362Z,981.3
2018-07-24T05:07:18.607Z,981.3
2018-07-24T05:08:19.846Z,981.3
2018-07-24T05:09:21.027Z,981.3
2018-07-24T05:10:22.222Z,981.3
2018-07-24T05:11:23.396Z,981.3
2018-07-24T05:12:24.627Z,981.4
2018-07-24T05:13:25.808Z,981.3
2018-07-24T05:14:27.047Z,981.4
2018-07-24T05:15:28.266Z,981.4
2018-07-24T05:16:29.446Z,981.4
2018-07-24T05:17:30.693Z,981.4
2018-07-24T05:18:31.921Z,981.4
2018-07-24T05:19:33.135Z,981.5
2018-07-24T05:20:35.314Z,981.5
2018-07-24T05:21:36.526Z,981.5
2018-07-24T05:22:37.771Z,981.6
2018-07-24T05:23:39.007Z,981.6
2018-07-24T05:24:40.210Z,981.6
2018-07-24T05:25:41.442Z,981.7
2018-07-24T05:26:42.575Z,981.7
2018-07-24T05:27:43.824Z,981.7
2018-07-24T05:28:45.249Z,981.7
2018-07-24T05:29:46.483Z,981.7
2018-07-24T05:30:47.808Z,981.8
2018-07-24T05:31:49.019Z,981.7
2018-07-24T05:32:50.439Z,981.8
2018-07-24T05:33:51.633Z,981.9
2018-07-24T05:34:52.811Z,981.9
2018-07-24T05:35:55.208Z,982
2018-07-24T05:36:56.427Z,982
2018-07-24T05:37:58.614Z,981.9
2018-07-24T05:38:59.927Z,981.9
2018-07-24T05:41:02.533Z,982
2018-07-24T05:42:03.917Z,982.1
2018-07-24T05:43:07.432Z,982.1
2018-07-24T05:44:08.673Z,982.1
2018-07-24T05:45:10.220Z,982.1
2018-07-24T05:46:11.447Z,982.2
2018-07-24T05:47:12.665Z,982.2
2018-07-24T05:48:13.875Z,982.2
2018-07-24T05:49:15.051Z,982.3
2018-07-24T05:50:16.263Z,982.3
2018-07-24T05:51:17.492Z,982.3
2018-07-24T05:52:18.715Z,982.4
2018-07-24T05:53:20.173Z,982.4
2018-07-24T05:54:21.400Z,982.5
2018-07-24T05:55:22.799Z,982.5
2018-07-24T05:56:23.975Z,982.5
2018-07-24T05:57:25.191Z,982.5
2018-07-24T05:58:26.444Z,982.6
2018-07-24T05:59:34.958Z,982.5
2018-07-24T06:00:36.184Z,982.7
2018-07-24T06:01:37.412Z,982.7
2018-07-24T06:02:38.741Z,982.7
2018-07-24T06:03:40.196Z,982.8
2018-07-24T06:04:41.411Z,982.8
2018-07-24T06:05:42.598Z,982.9
2018-07-24T06:06:50.565Z,982.8
2018-07-24T06:07:51.804Z,982.9
2018-07-24T06:08:53.205Z,982.9
2018-07-24T06:09:54.862Z,983
2018-07-24T06:10:57.063Z,983
2018-07-24T06:11:58.368Z,983
2018-07-24T06:12:59.716Z,983
2018-07-24T06:14:00.954Z,983
2018-07-24T06:15:02.170Z,983
2018-07-24T06:16:04.189Z,983
2018-07-24T06:17:05.444Z,983
2018-07-24T06:18:06.640Z,983
2018-07-24T06:19:07.873Z,983
2018-07-24T06:20:09.075Z,983
2018-07-24T06:21:10.404Z,982.9
2018-07-24T06:22:11.651Z,983
2018-07-24T06:23:12.862Z,983
2018-07-24T06:24:14.335Z,983
2018-07-24T06:25:15.517Z,983
2018-07-24T06:26:16.727Z,983
2018-07-24T06:27:17.912Z,983
2018-07-24T06:28:19.116Z,983.1
2018-07-24T06:29:20.438Z,983
2018-07-24T06:30:21.736Z,983.2
2018-07-24T06:31:22.968Z,983.1
2018-07-24T06:32:24.186Z,983.2
2018-07-24T06:33:25.396Z,983.1
2018-07-24T06:34:26.668Z,983.1
2018-07-24T06:35:27.887Z,983.1
2018-07-24T06:36:29.076Z,983
2018-07-24T06:37:30.424Z,983.1
2018-07-24T06:38:31.632Z,983.2
2018-07-24T06:39:32.895Z,983.2
2018-07-24T06:40:34.102Z,983.1
2018-07-24T06:41:35.335Z,983.2
2018-07-24T06:42:38.886Z,983.2
2018-07-24T06:43:40.425Z,983.1
2018-07-24T06:44:41.801Z,983.3
2018-07-24T06:45:42.979Z,983.4
2018-07-24T06:46:44.234Z,983.3
2018-07-24T06:47:45.462Z,983.3
2018-07-24T06:48:46.766Z,983.3
2018-07-24T06:49:47.983Z,983.2
2018-07-24T06:50:49.214Z,983.1
2018-07-24T06:51:50.550Z,983.4
2018-07-24T06:52:53.879Z,983.4
2018-07-24T06:53:55.283Z,983.4
2018-07-24T06:54:56.738Z,983.4
2018-07-24T06:55:57.949Z,983.4
2018-07-24T06:56:59.135Z,983.3
2018-07-24T06:58:00.403Z,983.4
2018-07-24T06:59:01.675Z,983.3
2018-07-24T07:00:02.918Z,983.4
2018-07-24T07:01:05.251Z,983.4
2018-07-24T07:02:06.587Z,983.4
2018-07-24T07:03:07.772Z,983.3
2018-07-24T07:04:08.976Z,983.4
2018-07-24T07:05:10.353Z,983.5
2018-07-24T07:06:11.584Z,983.5
2018-07-24T07:07:14.969Z,983.5
2018-07-24T07:08:17.209Z,983.5
2018-07-24T07:09:18.409Z,983.4
2018-07-24T07:10:22.110Z,983.4
2018-07-24T07:11:25.598Z,983.5
2018-07-24T07:12:26.796Z,983.5
2018-07-24T07:13:35.375Z,983.5
2018-07-24T07:14:37.846Z,983.6
2018-07-24T07:15:40.060Z,983.5
2018-07-24T07:16:41.615Z,983.5
2018-07-24T07:17:42.975Z,983.4
2018-07-24T07:18:44.170Z,983.4
2018-07-24T07:19:45.340Z,983.5
2018-07-24T07:20:46.555Z,983.4
2018-07-24T07:21:47.858Z,983.4
2018-07-24T07:22:49.051Z,983.4
2018-07-24T07:23:50.256Z,983.5
2018-07-24T07:24:51.480Z,983.4
2018-07-24T07:25:54.952Z,983.4
2018-07-24T07:26:56.257Z,983.4
2018-07-24T07:27:57.487Z,983.2
2018-07-24T07:28:58.896Z,983.3
2018-07-24T07:30:00.151Z,983.3
2018-07-24T07:31:01.476Z,983.4
2018-07-24T07:32:07.585Z,983.5
2018-07-24T07:33:08.804Z,983.4
2018-07-24T07:34:12.119Z,983.5
2018-07-24T07:35:13.299Z,983.5
2018-07-24T07:36:14.912Z,983.5
2018-07-24T07:37:16.170Z,983.3
2018-07-24T07:39:34.059Z,983.3
2018-07-24T07:40:35.271Z,983.4
2018-07-24T07:41:37.863Z,983.3
2018-07-24T07:42:41.309Z,983.4
2018-07-24T07:43:42.517Z,983.4
2018-07-24T07:44:43.852Z,983.5
2018-07-24T07:45:45.046Z,983.3
2018-07-24T07:46:51.360Z,983.5
2018-07-24T07:47:52.571Z,983.4
2018-07-24T07:48:53.764Z,983.4
2018-07-24T07:49:54.968Z,983.2
2018-07-24T07:50:56.287Z,983.4
2018-07-24T07:51:57.623Z,983.4
2018-07-24T07:52:58.821Z,983.3
2018-07-24T07:54:00.004Z,983.4
2018-07-24T07:55:01.329Z,983.4
2018-07-24T07:56:02.536Z,983.4
2018-07-24T07:57:03.834Z,983.4
2018-07-24T07:58:05.198Z,983.5
2018-07-24T07:59:09.407Z,983.3
2018-07-24T08:00:10.612Z,983.4
2018-07-24T08:01:11.867Z,983.4
2018-07-24T08:02:13.219Z,983.4
2018-07-24T08:03:17.535Z,983.5
2018-07-24T08:04:19.800Z,983.4
2018-07-24T08:05:21.034Z,983.5
2018-07-24T08:06:25.608Z,983.3
2018-07-24T08:07:26.879Z,983.3
2018-07-24T08:08:28.064Z,983.4
2018-07-24T08:09:29.276Z,983.5
2018-07-24T08:10:30.711Z,983.4
2018-07-24T08:11:32.319Z,983.6
2018-07-24T08:12:33.634Z,983.4
2018-07-24T08:13:35.185Z,983.4
2018-07-24T08:14:36.526Z,983.6
2018-07-24T08:15:37.715Z,983.5
2018-07-24T08:16:39.124Z,983.4
2018-07-24T08:17:40.677Z,983.4
2018-07-24T08:18:41.903Z,983.5
2018-07-24T08:19:43.182Z,983.6
2018-07-24T08:20:44.772Z,983.4
2018-07-24T08:21:46.009Z,983.4
2018-07-24T08:22:47.259Z,983.5
2018-07-24T08:23:48.936Z,983.5
2018-07-24T08:24:50.115Z,983.3
2018-07-24T08:25:51.639Z,983.4
2018-07-24T08:26:54.110Z,983.4
2018-07-24T08:27:55.475Z,983.4
2018-07-24T08:28:56.656Z,983.4
2018-07-24T08:29:57.881Z,983.4
2018-07-24T08:30:59.151Z,983.5
2018-07-24T08:32:04.164Z,983.4
2018-07-24T08:33:05.451Z,983.4
2018-07-24T08:34:06.673Z,983.5
2018-07-24T08:35:13.576Z,983.5
2018-07-24T08:36:14.867Z,983.6
2018-07-24T08:37:16.065Z,983.6
2018-07-24T08:38:19.715Z,983.4
2018-07-24T08:39:21.293Z,983.5
2018-07-24T08:40:22.497Z,983.4
2018-07-24T08:41:28.602Z,983.3
2018-07-24T08:42:32.219Z,983.5
2018-07-24T08:43:33.641Z,983.3
2018-07-24T08:44:39.701Z,983.2
2018-07-24T08:45:41.115Z,983.3
2018-07-24T08:46:42.373Z,983.2
2018-07-24T08:47:43.585Z,983.2
2018-07-24T08:48:44.854Z,983.3
2018-07-24T08:50:08.311Z,983.4
2018-07-24T08:51:09.520Z,983.3
2018-07-24T08:52:10.750Z,983.2
2018-07-24T08:53:15.673Z,983.3
2018-07-24T08:54:16.829Z,983.3
2018-07-24T08:55:18.432Z,983.3
2018-07-24T08:56:19.257Z,983.4
2018-07-24T08:57:20.732Z,983.4
2018-07-24T08:58:22.067Z,983.3
2018-07-24T08:59:23.385Z,983.4
2018-07-24T09:00:24.636Z,983.4
2018-07-24T09:01:32.309Z,983.2
2018-07-24T09:02:34.697Z,983.3
2018-07-24T09:03:37.359Z,983.3
2018-07-24T09:04:38.613Z,983.1
2018-07-24T09:05:42.086Z,983.2
2018-07-24T09:06:43.319Z,983.3
2018-07-24T09:07:44.566Z,983.1
2018-07-24T09:08:45.880Z,983.1
2018-07-24T09:09:48.930Z,983.3
2018-07-24T09:10:50.177Z,983.1
2018-07-24T09:11:52.637Z,982.9
2018-07-24T09:12:53.903Z,982.6
2018-07-24T09:13:56.089Z,982.7
2018-07-24T09:14:57.596Z,982.9
2018-07-24T09:15:58.886Z,982.9
2018-07-24T09:17:00.261Z,982.8
2018-07-24T09:18:02.788Z,983.1
2018-07-24T09:19:06.367Z,983
2018-07-24T09:20:08.471Z,983
2018-07-24T09:21:09.756Z,982.9
2018-07-24T09:22:11.290Z,982.9
2018-07-24T09:23:14.114Z,982.9
2018-07-24T09:24:15.341Z,983
2018-07-24T09:25:16.605Z,982.9
2018-07-24T09:26:17.859Z,982.9
2018-07-24T09:27:19.348Z,982.9
2018-07-24T09:28:20.562Z,983.1
2018-07-24T09:29:26.001Z,983
2018-07-24T09:30:27.330Z,983
2018-07-24T09:31:28.835Z,982.7
2018-07-24T09:32:30.323Z,982.6
2018-07-24T09:33:31.588Z,982.7
2018-07-24T09:34:32.811Z,982.6
2018-07-24T09:35:34.048Z,982.7
2018-07-24T09:36:35.359Z,982.7
2018-07-24T09:37:36.570Z,982.7
2018-07-24T09:38:37.814Z,982.7
2018-07-24T09:39:39.023Z,982.7
2018-07-24T09:40:40.323Z,982.7
2018-07-24T09:41:41.606Z,982.6
2018-07-24T09:42:42.874Z,982.7
2018-07-24T09:43:44.269Z,982.6
2018-07-24T09:44:45.740Z,982.6
2018-07-24T09:45:47.946Z,982.5
2018-07-24T09:46:49.130Z,982.5
2018-07-24T09:47:50.344Z,982.4
2018-07-24T09:48:51.575Z,982.6
2018-07-24T09:49:52.812Z,982.4
2018-07-24T09:50:54.092Z,982.5
2018-07-24T09:51:55.324Z,982.3
2018-07-24T09:52:56.730Z,982.5
2018-07-24T09:53:58.004Z,982.4
2018-07-24T09:55:01.371Z,982.6
2018-07-24T09:56:02.752Z,982.4
2018-07-24T09:57:03.952Z,982.4
2018-07-24T09:58:05.600Z,982.3
2018-07-24T09:59:11.011Z,982.3
2018-07-24T10:00:13.404Z,982.4
2018-07-24T10:01:15.003Z,982.4
2018-07-24T10:02:16.609Z,982.4
2018-07-24T10:03:17.847Z,982.5
2018-07-24T10:04:19.095Z,982.4
2018-07-24T10:05:20.418Z,982.3
2018-07-24T10:06:21.739Z,982.2
2018-07-24T10:07:24.143Z,982.4
2018-07-24T10:08:26.528Z,982.2
2018-07-24T10:09:27.755Z,982.3
2018-07-24T10:10:31.322Z,982.2
2018-07-24T10:11:32.675Z,982.3
2018-07-24T10:12:33.898Z,982.3
2018-07-24T10:13:37.459Z,982.4
2018-07-24T10:14:38.662Z,983
2018-07-24T10:15:41.834Z,982.4
2018-07-24T10:16:43.166Z,982.3
2018-07-24T10:17:44.304Z,982.1
2018-07-24T10:18:46.862Z,982.1
2018-07-24T10:19:48.043Z,982.1
2018-07-24T10:20:49.237Z,982.1
2018-07-24T10:21:53.735Z,982.2
2018-07-24T10:22:55.211Z,982.1
2018-07-24T10:23:56.444Z,982.6
2018-07-24T10:24:57.658Z,982.6
2018-07-24T10:26:00.324Z,982.3
2018-07-24T10:27:19.863Z,982.1
2018-07-24T10:28:23.381Z,982.1
2018-07-24T10:29:25.206Z,981.9
2018-07-24T10:30:26.465Z,982
2018-07-24T10:31:32.330Z,982
2018-07-24T10:32:33.624Z,981.8
2018-07-24T10:33:34.854Z,981.8
2018-07-24T10:34:37.429Z,981.9
2018-07-24T10:35:38.704Z,981.7
2018-07-24T10:36:40.613Z,981.6
2018-07-24T10:37:44.299Z,981.6
2018-07-24T10:38:45.743Z,981.7
2018-07-24T10:39:47.115Z,981.8
2018-07-24T10:40:48.595Z,981.8
2018-07-24T10:41:52.269Z,981.6
2018-07-24T10:42:53.487Z,981.7
2018-07-24T10:43:55.991Z,981.8
2018-07-24T10:44:59.284Z,981.8
2018-07-24T10:46:00.639Z,981.7
2018-07-24T10:47:02.435Z,981.6
2018-07-24T10:48:10.199Z,981.6
2018-07-24T10:49:12.448Z,981.4
2018-07-24T10:50:16.119Z,981.7
2018-07-24T10:51:23.746Z,981.6
2018-07-24T10:52:27.335Z,981.5
2018-07-24T10:53:30.972Z,981.4
2018-07-24T10:54:32.581Z,981.6
2018-07-24T10:55:37.272Z,981.4
2018-07-24T10:56:40.080Z,981.5
2018-07-24T10:57:41.278Z,981.3
2018-07-24T10:58:42.643Z,981.4
2018-07-24T10:59:43.902Z,981.4
2018-07-24T11:00:46.197Z,981.4
2018-07-24T11:01:48.491Z,981.6
2018-07-24T11:04:08.341Z,981.3
2018-07-24T11:05:09.581Z,981.3
2018-07-24T11:06:10.945Z,981.1
2018-07-24T11:07:12.286Z,981.3
2018-07-24T11:08:13.491Z,981.2
2018-07-24T11:09:14.974Z,981.2
2018-07-24T11:10:16.170Z,981.3
2018-07-24T11:11:17.433Z,981.2
2018-07-24T11:12:18.874Z,981.3
2018-07-24T11:13:20.266Z,981.3
2018-07-24T11:14:21.737Z,981.2
2018-07-24T11:15:24.004Z,981.2
2018-07-24T11:16:25.543Z,981.2
2018-07-24T11:17:26.693Z,981.2
2018-07-24T11:18:27.951Z,981.2
2018-07-24T11:19:29.246Z,981.3
2018-07-24T11:20:30.488Z,981.3
2018-07-24T11:21:32.018Z,981.1
2018-07-24T11:22:33.345Z,980.9
2018-07-24T11:23:34.505Z,980.8
2018-07-24T11:24:38.212Z,980.9
2018-07-24T11:25:40.442Z,980.8
2018-07-24T11:26:41.747Z,980.8
2018-07-24T11:27:44.184Z,981
2018-07-24T11:28:46.403Z,980.9
2018-07-24T11:29:50.129Z,980.8
2018-07-24T11:30:51.343Z,981.1
2018-07-24T11:31:52.631Z,981
2018-07-24T11:32:53.909Z,980.8
2018-07-24T11:33:55.336Z,981
2018-07-24T11:34:58.359Z,980.9
2018-07-24T11:35:59.731Z,980.8
2018-07-24T11:37:00.820Z,980.6
2018-07-24T11:38:04.155Z,980.7
2018-07-24T11:39:05.620Z,980.8
2018-07-24T11:40:06.953Z,980.8
2018-07-24T11:41:15.441Z,980.7
2018-07-24T11:42:18.623Z,980.8
2018-07-24T11:43:19.864Z,980.7
2018-07-24T11:44:21.326Z,980.9
2018-07-24T11:45:24.420Z,980.7
2018-07-24T11:46:25.716Z,980.7
2018-07-24T11:47:27.090Z,980.8
2018-07-24T11:48:28.320Z,980.7
2018-07-24T11:49:29.531Z,980.7
2018-07-24T11:50:33.372Z,980.6
2018-07-24T11:51:34.727Z,980.7
2018-07-24T11:52:35.892Z,980.7
2018-07-24T11:53:46.775Z,980.7
2018-07-24T11:54:51.122Z,980.5
2018-07-24T11:55:57.076Z,980.5
2018-07-24T11:57:00.522Z,980.6
2018-07-24T11:58:08.822Z,980.5
2018-07-24T11:59:10.360Z,980.5
2018-07-24T12:00:11.867Z,980.6
2018-07-24T12:01:13.244Z,980.6
2018-07-24T12:02:14.669Z,980.5
2018-07-24T12:03:15.943Z,980.3
2018-07-24T12:04:17.178Z,980.3
2018-07-24T12:05:18.430Z,980.3
2018-07-24T12:06:21.999Z,980.4
2018-07-24T12:07:24.483Z,980.3
2018-07-24T12:08:28.257Z,980.5
2018-07-24T12:09:29.498Z,980.5
2018-07-24T12:10:30.951Z,980.5
2018-07-24T12:11:34.507Z,980.3
2018-07-24T12:12:44.305Z,980.4
2018-07-24T12:13:45.573Z,980.3
2018-07-24T12:14:46.860Z,980.3
2018-07-24T12:15:48.242Z,980.3
2018-07-24T12:17:04.038Z,980.3
2018-07-24T12:18:05.347Z,980
2018-07-24T12:19:08.819Z,979.9
2018-07-24T12:20:10.305Z,980.2
2018-07-24T12:21:12.376Z,980.3
2018-07-24T12:22:13.771Z,980.1
2018-07-24T12:23:17.584Z,980.1
2018-07-24T12:24:21.780Z,980.3
2018-07-24T12:25:24.038Z,980
2018-07-24T12:26:25.259Z,980.1
2018-07-24T12:27:26.554Z,980.1
2018-07-24T12:29:45.928Z,980.1
2018-07-24T12:30:47.167Z,980.2
2018-07-24T12:31:48.461Z,980.2
2018-07-24T12:32:49.862Z,980.1
2018-07-24T12:33:51.104Z,980.1
2018-07-24T12:34:52.401Z,980.1
2018-07-24T12:35:53.653Z,980.1
2018-07-24T12:36:54.888Z,980.1
2018-07-24T12:37:56.206Z,980
2018-07-24T12:38:58.291Z,980
2018-07-24T12:39:59.487Z,979.8
2018-07-24T12:41:00.724Z,979.8
2018-07-24T12:42:17.427Z,980
2018-07-24T12:43:18.921Z,979.9
2018-07-24T12:44:23.235Z,979.9
2018-07-24T12:45:24.484Z,979.8
2018-07-24T12:46:27.900Z,979.9
2018-07-24T12:47:30.100Z,979.7
2018-07-24T12:48:32.661Z,979.5
2018-07-24T12:49:33.908Z,979.4
2018-07-24T12:50:35.979Z,979.6
2018-07-24T12:51:38.324Z,979.5
2018-07-24T12:52:48.596Z,979.5
2018-07-24T12:53:51.375Z,979.5
2018-07-24T12:54:52.586Z,979.7
2018-07-24T12:55:56.280Z,979.7
2018-07-24T12:56:58.503Z,979.9
2018-07-24T12:58:02.224Z,979.8
2018-07-24T12:59:09.539Z,979.9
2018-07-24T13:00:13.724Z,980
2018-07-24T13:01:16.731Z,979.9
2018-07-24T13:02:19.757Z,979.4
2018-07-24T13:03:21.232Z,979.8
2018-07-24T13:04:24.460Z,979.6
2018-07-24T13:05:25.727Z,979.8
2018-07-24T13:06:27.309Z,979.9
2018-07-24T13:07:28.668Z,979.9
2018-07-24T13:08:29.850Z,979.9
2018-07-24T13:09:31.727Z,979.8
2018-07-24T13:10:33.334Z,979.9
2018-07-24T13:11:34.547Z,979.9
2018-07-24T13:12:35.827Z,979.8
2018-07-24T13:13:55.716Z,979.9
2018-07-24T13:14:57.026Z,979.9
2018-07-24T13:16:00.333Z,979.9
2018-07-24T13:17:03.423Z,979.7
2018-07-24T13:18:12.754Z,979.9
2018-07-24T13:19:13.989Z,979.8
2018-07-24T13:20:15.243Z,979.9
2018-07-24T13:21:18.882Z,979.9
2018-07-24T13:22:20.110Z,979.9
2018-07-24T13:23:21.335Z,979.9
2018-07-24T13:24:22.574Z,979.9
2018-07-24T13:25:25.870Z,979.9